首页
METAR-TAF:

METAR-TAF

机场 :

贝娜齐尔·布托国际机场

伊斯兰堡, 巴基斯坦

纬度: 33-37N, 经度: 073-06E, 海拔: 507米

当前天气观测

该预报发布于30分钟前的04:00 UTC
静风
温度 14°C
湿度 58%
气压 1017 hPa
能见度10公里或以上
1500米以下无云,无积雨云

METAR: OPRN 180400Z 00000KT CAVOK 14/06 Q1017 NOSIG RMK A3003

时间: 09:30 (04:30 UTC)

预报

该预报发布于7小时和0分钟前的21:30 UTC
预报有效从18日的 00点(UTC)到 19日的 06点(UTC)
风速10节,风向东南
能見度: 3000
散云层高于10000英尺
多云层高于20000英尺
轻雾
成为
从 18日的 05点(UTC)到 18日的 07点(UTC)
风速10节,风向西
能见度10公里或以上
少量云层高于4000英尺
散云层高于10000英尺
多云层高于20000英尺
短暂存在
从 18日的 15点(UTC)到 18日的 21点(UTC)
能見度: 8000
短暂存在
从 19日的 00点(UTC)到 19日的 03点(UTC)
能見度: 3000
轻雾

TAF: OPRN 172130Z 1800/1906 13010KT 3000 BR SCT100 BKN200 BECMG 1805/1807 28010KT 9999 FEW040 SCT100 BKN200 TEMPO 1815/1821 8000 TEMPO 1900/1903 3000 BR

超过4000个机场的气象观测和天气预报(METAR&TAF报告)。

可查询的气象台以黄色和红色小点在地图上表示。

将鼠标移到小点上方,可查看气象台名称。

然后点击查看天气观测和预报。

如需切换地图:点击带黑十字的绿色按钮放大地图;点击带横线的绿色按钮缩小地图;或者点击绿色箭头查看邻近地区的地图。


METAR-TAF: